createdAt,value
2019-01-27T00:04:29.228Z,13.13
2019-01-27T00:07:19.633Z,13.90
2019-01-27T00:09:50.151Z,13.60
2019-01-27T00:12:59.226Z,14.37
2019-01-27T00:15:41.871Z,15.75
2019-01-27T00:18:23.753Z,12.47
2019-01-27T00:21:05.861Z,11.60
2019-01-27T00:23:48.185Z,14.77
2019-01-27T00:26:30.387Z,13.63
2019-01-27T00:29:13.162Z,17.43
2019-01-27T00:31:55.311Z,13.07
2019-01-27T00:34:37.227Z,13.17
2019-01-27T00:37:20.285Z,14.47
2019-01-27T00:40:02.901Z,15.00
2019-01-27T00:42:33.432Z,16.20
2019-01-27T00:45:23.029Z,15.57
2019-01-27T00:48:12.650Z,16.03
2019-01-27T00:50:54.838Z,16.33
2019-01-27T00:53:36.954Z,12.80
2019-01-27T00:56:19.324Z,12.53
2019-01-27T00:59:01.960Z,12.63
2019-01-27T01:01:44.617Z,14.87
2019-01-27T01:04:15.146Z,13.32
2019-01-27T01:07:06.328Z,14.80
2019-01-27T01:09:49.667Z,15.07
2019-01-27T01:12:31.925Z,13.80
2019-01-27T01:15:02.644Z,14.20
2019-01-27T01:17:52.640Z,15.93
2019-01-27T01:20:43.793Z,13.57
2019-01-27T01:23:27.194Z,15.70
2019-01-27T01:26:09.828Z,13.73
2019-01-27T01:28:51.943Z,14.53
2019-01-27T01:31:22.606Z,14.40
2019-01-27T01:34:12.196Z,14.67
2019-01-27T01:36:54.755Z,15.13
2019-01-27T01:39:37.703Z,17.13
2019-01-27T01:42:20.391Z,15.93
2019-01-27T01:45:02.934Z,14.27
2019-01-27T01:47:44.771Z,15.30
2019-01-27T01:50:15.779Z,17.67
2019-01-27T01:53:10.291Z,14.67
2019-01-27T01:55:52.384Z,13.83
2019-01-27T01:58:34.247Z,16.07
2019-01-27T02:01:16.386Z,14.53
2019-01-27T02:03:58.703Z,16.70
2019-01-27T02:06:41.278Z,15.33
2019-01-27T02:09:11.951Z,16.77
2019-01-27T02:11:42.431Z,17.20
2019-01-27T02:14:12.935Z,17.73
2019-01-27T02:16:43.566Z,15.10
2019-01-27T02:19:14.354Z,13.57
2019-01-27T02:21:45.066Z,15.60
2019-01-27T02:24:15.963Z,17.30
2019-01-27T02:26:46.618Z,15.60
2019-01-27T02:29:17.229Z,17.10
2019-01-27T02:31:48.050Z,18.70
2019-01-27T02:34:18.534Z,17.27
2019-01-27T02:36:49.352Z,16.20
2019-01-27T02:39:21.146Z,15.53
2019-01-27T02:41:51.641Z,19.30
2019-01-27T02:44:22.182Z,19.50
2019-01-27T02:46:53.750Z,15.47
2019-01-27T02:49:24.304Z,17.77
2019-01-27T02:51:55.106Z,17.30
2019-01-27T02:54:25.718Z,16.10
2019-01-27T02:56:56.267Z,20.60
2019-01-27T02:59:26.774Z,17.27
2019-01-27T03:01:57.275Z,15.73
2019-01-27T03:04:27.910Z,17.27
2019-01-27T03:07:05.990Z,18.03
2019-01-27T03:09:42.226Z,19.77
2019-01-27T03:12:12.786Z,16.70
2019-01-27T03:14:43.373Z,19.13
2019-01-27T03:17:15.708Z,17.83
2019-01-27T03:19:46.349Z,18.97
2019-01-27T03:22:16.849Z,15.97
2019-01-27T03:24:47.519Z,18.30
2019-01-27T03:27:18.116Z,19.87
2019-01-27T03:29:48.854Z,20.93
2019-01-27T03:32:19.370Z,20.33
2019-01-27T03:34:50.354Z,19.00
2019-01-27T03:37:20.982Z,17.93
2019-01-27T03:39:51.900Z,18.80
2019-01-27T03:42:22.533Z,18.77
2019-01-27T03:44:53.047Z,16.97
2019-01-27T03:47:23.578Z,19.67
2019-01-27T03:49:54.070Z,18.10
2019-01-27T03:52:24.728Z,17.30
2019-01-27T03:54:55.238Z,22.20
2019-01-27T03:57:25.788Z,19.10
2019-01-27T03:59:56.298Z,21.27
2019-01-27T04:02:26.903Z,17.93
2019-01-27T04:04:59.139Z,18.00
2019-01-27T04:07:29.671Z,20.30
2019-01-27T04:10:01.169Z,23.03
2019-01-27T04:12:31.784Z,21.00
2019-01-27T04:15:02.308Z,21.77
2019-01-27T04:17:32.916Z,21.50
2019-01-27T04:20:03.449Z,22.17
2019-01-27T04:22:33.955Z,21.00
2019-01-27T04:25:04.754Z,22.30
2019-01-27T04:27:35.262Z,21.83
2019-01-27T04:30:07.878Z,25.57
2019-01-27T04:32:38.531Z,22.70
2019-01-27T04:35:10.494Z,26.93
2019-01-27T04:37:41.146Z,25.90
2019-01-27T04:40:16.715Z,28.60
2019-01-27T04:42:47.314Z,24.00
2019-01-27T04:45:21.643Z,27.13
2019-01-27T04:47:52.863Z,32.00
2019-01-27T04:50:23.519Z,28.13
2019-01-27T04:52:54.050Z,27.50
2019-01-27T04:55:24.674Z,32.87
2019-01-27T04:57:55.287Z,34.60
2019-01-27T05:00:28.464Z,32.83
2019-01-27T05:03:16.605Z,35.70
2019-01-27T05:05:47.171Z,33.00
2019-01-27T05:08:17.695Z,39.37
2019-01-27T05:10:51.480Z,39.17
2019-01-27T05:13:22.095Z,45.87
2019-01-27T05:15:52.757Z,39.87
2019-01-27T05:18:23.358Z,40.70
2019-01-27T05:20:53.893Z,39.00
2019-01-27T05:23:24.407Z,43.13
2019-01-27T05:25:54.949Z,44.13
2019-01-27T05:28:25.473Z,46.20
2019-01-27T05:30:55.982Z,44.37
2019-01-27T05:33:26.565Z,43.07
2019-01-27T05:35:57.150Z,46.10
2019-01-27T05:38:27.756Z,48.83
2019-01-27T05:40:58.292Z,46.57
2019-01-27T05:43:31.216Z,45.97
2019-01-27T05:46:01.703Z,47.37
2019-01-27T05:48:32.220Z,45.13
2019-01-27T05:51:03.032Z,43.07
2019-01-27T05:53:33.551Z,45.53
2019-01-27T05:56:04.225Z,48.07
2019-01-27T05:58:34.788Z,45.83
2019-01-27T06:01:05.522Z,45.70
2019-01-27T06:03:36.042Z,53.20
2019-01-27T06:06:06.483Z,48.23
2019-01-27T06:08:36.990Z,50.23
2019-01-27T06:11:07.541Z,44.53
2019-01-27T06:13:38.392Z,50.47
2019-01-27T06:16:08.951Z,52.70
2019-01-27T06:18:39.455Z,47.57
2019-01-27T06:21:10.430Z,47.90
2019-01-27T06:23:40.945Z,47.93
2019-01-27T06:26:11.439Z,45.73
2019-01-27T06:28:42.824Z,54.87
2019-01-27T06:31:13.330Z,50.50
2019-01-27T06:33:48.447Z,52.57
2019-01-27T06:36:19.436Z,52.90
2019-01-27T06:38:49.971Z,51.33
2019-01-27T06:41:20.497Z,51.17
2019-01-27T06:43:51.057Z,51.07
2019-01-27T06:46:21.543Z,55.57
2019-01-27T06:48:52.342Z,46.63
2019-01-27T06:51:22.883Z,60.30
2019-01-27T06:53:53.419Z,57.30
2019-01-27T06:56:23.965Z,49.97
2019-01-27T06:59:31.371Z,51.77
2019-01-27T07:02:09.687Z,48.70
2019-01-27T07:04:57.859Z,52.30
2019-01-27T07:08:02.317Z,52.70
2019-01-27T07:10:45.899Z,50.23
2019-01-27T07:13:26.350Z,54.20
2019-01-27T07:16:19.395Z,54.27
2019-01-27T07:19:08.906Z,53.77
2019-01-27T07:22:10.939Z,52.37
2019-01-27T07:25:18.295Z,58.37
2019-01-27T07:28:25.651Z,53.67
2019-01-27T07:31:30.658Z,55.30
2019-01-27T07:34:20.759Z,51.67
2019-01-27T07:37:14.414Z,49.80
2019-01-27T07:40:03.881Z,56.33
2019-01-27T07:43:02.606Z,59.53
2019-01-27T07:45:50.158Z,57.33
2019-01-27T07:48:39.639Z,49.40
2019-01-27T07:51:28.214Z,56.30
2019-01-27T07:54:17.888Z,51.27
2019-01-27T07:57:16.222Z,55.47
2019-01-27T08:00:05.036Z,48.43
2019-01-27T08:02:56.726Z,44.77
2019-01-27T08:05:45.522Z,48.17
2019-01-27T08:08:35.434Z,49.43
2019-01-27T08:11:16.725Z,49.53
2019-01-27T08:14:09.145Z,49.77
2019-01-27T08:16:49.720Z,48.50
2019-01-27T08:19:30.079Z,47.07
2019-01-27T08:22:22.310Z,43.37
2019-01-27T08:25:06.755Z,38.97
2019-01-27T08:27:53.152Z,45.03
2019-01-27T08:30:32.133Z,47.50
2019-01-27T08:33:16.113Z,43.07
2019-01-27T08:36:17.504Z,40.47
2019-01-27T08:39:16.954Z,44.40
2019-01-27T08:42:13.027Z,40.93
2019-01-27T08:45:14.740Z,42.47
2019-01-27T08:47:45.542Z,39.67
2019-01-27T08:50:18.001Z,38.00
2019-01-27T08:52:49.469Z,38.70
2019-01-27T08:55:20.274Z,39.43
2019-01-27T08:57:50.955Z,43.53
2019-01-27T09:00:32.990Z,42.93
2019-01-27T09:03:38.107Z,43.07
2019-01-27T09:06:40.223Z,47.10
2019-01-27T09:09:30.531Z,37.27
2019-01-27T09:12:20.731Z,41.60
2019-01-27T09:15:36.557Z,41.53
2019-01-27T09:18:26.129Z,44.80
2019-01-27T09:21:16.024Z,39.40
2019-01-27T09:23:57.282Z,40.60
2019-01-27T09:26:35.814Z,46.10
2019-01-27T09:29:31.245Z,41.27
2019-01-27T09:32:19.600Z,39.20
2019-01-27T09:35:14.868Z,41.40
2019-01-27T09:37:57.765Z,36.60
2019-01-27T09:40:45.254Z,41.73
2019-01-27T09:43:33.150Z,34.97
2019-01-27T09:46:29.543Z,39.43
2019-01-27T09:49:08.922Z,37.73
2019-01-27T09:51:45.747Z,34.57
2019-01-27T09:54:33.722Z,35.40
2019-01-27T09:57:10.412Z,35.17
2019-01-27T09:59:48.105Z,35.87
2019-01-27T10:02:37.495Z,36.37
2019-01-27T10:05:19.033Z,31.93
2019-01-27T10:08:06.943Z,35.33
2019-01-27T10:11:00.676Z,32.47
2019-01-27T10:13:53.019Z,36.03
2019-01-27T10:16:32.951Z,31.63
2019-01-27T10:19:32.131Z,32.33
2019-01-27T10:22:27.912Z,33.50
2019-01-27T10:25:16.120Z,33.47
2019-01-27T10:28:03.435Z,33.43
2019-01-27T10:31:33.275Z,30.43
2019-01-27T10:34:22.895Z,29.17
2019-01-27T10:37:03.258Z,32.10
2019-01-27T10:39:38.661Z,30.70
2019-01-27T10:42:40.997Z,29.33
2019-01-27T10:45:33.332Z,28.70
2019-01-27T10:48:30.346Z,27.87
2019-01-27T10:51:41.482Z,30.53
2019-01-27T10:54:46.523Z,30.20
2019-01-27T10:57:59.691Z,29.37
2019-01-27T11:00:56.014Z,27.17
2019-01-27T11:03:58.071Z,27.13
2019-01-27T11:06:54.492Z,26.03
2019-01-27T11:09:41.677Z,23.60
2019-01-27T11:12:47.304Z,25.57
2019-01-27T11:15:37.292Z,23.83
2019-01-27T11:18:51.287Z,24.97
2019-01-27T11:21:48.024Z,25.73
2019-01-27T11:24:47.222Z,22.47
2019-01-27T11:27:49.315Z,25.47
2019-01-27T11:30:52.503Z,21.40
2019-01-27T11:33:53.237Z,22.80
2019-01-27T11:36:59.596Z,25.20
2019-01-27T11:40:09.111Z,22.87
2019-01-27T11:43:12.016Z,24.20
2019-01-27T11:46:09.123Z,24.20
2019-01-27T11:48:57.584Z,22.97
2019-01-27T11:51:43.079Z,23.87
2019-01-27T11:54:29.666Z,22.60
2019-01-27T11:57:06.391Z,24.63
2019-01-27T11:59:45.389Z,21.17
2019-01-27T12:02:20.147Z,22.80
2019-01-27T12:05:02.174Z,24.57
2019-01-27T12:07:40.158Z,24.57
2019-01-27T12:10:14.911Z,22.23
2019-01-27T12:12:50.737Z,23.17
2019-01-27T12:15:38.814Z,20.67
2019-01-27T12:18:11.415Z,20.47
2019-01-27T12:20:57.441Z,23.20
2019-01-27T12:23:31.480Z,21.20
2019-01-27T12:26:08.249Z,20.07
2019-01-27T12:28:46.252Z,18.67
2019-01-27T12:31:26.839Z,19.73
2019-01-27T12:33:54.567Z,18.50
2019-01-27T12:36:29.786Z,18.13
2019-01-27T12:42:13.442Z,17.97
2019-01-27T12:44:48.243Z,16.47
2019-01-27T12:47:24.122Z,14.07
2019-01-27T12:50:09.343Z,14.83
2019-01-27T12:52:58.100Z,15.17
2019-01-27T12:55:33.674Z,14.43
2019-01-27T12:58:22.874Z,15.00
2019-01-27T13:01:05.461Z,12.27
2019-01-27T13:03:41.182Z,13.03
2019-01-27T13:06:21.463Z,13.43
2019-01-27T13:08:58.368Z,14.13
2019-01-27T13:11:36.391Z,13.47
2019-01-27T13:14:24.195Z,12.78
2019-01-27T13:17:07.492Z,13.57
2019-01-27T13:23:00.598Z,14.07
2019-01-27T13:25:42.638Z,12.13
2019-01-27T13:28:35.567Z,11.60
2019-01-27T13:31:08.954Z,11.60
2019-01-27T13:33:50.596Z,11.17
2019-01-27T13:36:24.891Z,11.20
2019-01-27T13:39:00.923Z,10.63
2019-01-27T13:41:38.293Z,12.43
2019-01-27T13:44:23.312Z,11.00
2019-01-27T13:47:09.058Z,12.77
2019-01-27T13:49:58.249Z,11.57
2019-01-27T13:52:43.362Z,12.13
2019-01-27T13:55:33.065Z,11.97
2019-01-27T13:58:10.351Z,11.07
2019-01-27T14:00:56.901Z,11.23
2019-01-27T14:03:57.443Z,10.73
2019-01-27T14:06:32.844Z,9.50
2019-01-27T14:09:17.017Z,11.67
2019-01-27T14:11:59.827Z,9.47
2019-01-27T14:14:40.853Z,10.13
2019-01-27T14:17:17.914Z,10.80
2019-01-27T14:19:52.628Z,10.57
2019-01-27T14:22:42.715Z,9.93
2019-01-27T14:25:23.930Z,10.70
2019-01-27T14:28:23.086Z,10.27
2019-01-27T14:31:21.043Z,11.23
2019-01-27T14:34:11.190Z,8.20
2019-01-27T14:36:56.388Z,9.90
2019-01-27T14:39:49.558Z,11.20
2019-01-27T14:42:23.882Z,10.87
2019-01-27T14:44:57.462Z,10.43
2019-01-27T14:47:46.194Z,10.67
2019-01-27T14:50:31.457Z,10.67
2019-01-27T14:53:29.887Z,8.90
2019-01-27T14:56:21.037Z,10.57
2019-01-27T14:58:56.705Z,10.67
2019-01-27T15:01:37.283Z,11.57
2019-01-27T15:04:11.992Z,9.23
2019-01-27T15:06:59.931Z,10.47
2019-01-27T15:09:47.713Z,9.60
2019-01-27T15:12:24.721Z,8.60
2019-01-27T15:14:59.902Z,9.37
2019-01-27T15:17:40.617Z,8.03
2019-01-27T15:20:21.946Z,11.53
2019-01-27T15:23:08.498Z,9.13
2019-01-27T15:25:55.152Z,10.50
2019-01-27T15:28:33.495Z,8.67
2019-01-27T15:31:14.262Z,8.70
2019-01-27T15:33:50.480Z,8.27
2019-01-27T15:36:37.623Z,9.67
2019-01-27T15:40:00.768Z,7.55
2019-01-27T15:43:06.908Z,9.90
2019-01-27T15:45:47.989Z,8.90
2019-01-27T15:48:30.368Z,9.90
2019-01-27T15:51:04.716Z,8.43
2019-01-27T15:53:41.766Z,7.80
2019-01-27T15:56:15.584Z,10.90
2019-01-27T15:58:53.258Z,8.60
2019-01-27T16:01:27.420Z,9.00
2019-01-27T16:04:35.734Z,8.50
2019-01-27T16:07:13.873Z,9.38
2019-01-27T16:09:58.157Z,8.67
2019-01-27T16:12:34.767Z,9.23
2019-01-27T16:15:11.895Z,10.47
2019-01-27T16:17:48.778Z,8.80
2019-01-27T16:20:23.643Z,8.57
2019-01-27T16:23:22.655Z,8.60
2019-01-27T16:26:07.748Z,9.43
2019-01-27T16:28:43.688Z,10.43
2019-01-27T16:31:45.034Z,10.27
2019-01-27T16:34:43.470Z,9.50
2019-01-27T16:37:19.730Z,9.37
2019-01-27T16:39:56.901Z,8.47
2019-01-27T16:42:32.072Z,10.20
2019-01-27T16:45:15.126Z,12.10
2019-01-27T16:47:52.370Z,10.90
2019-01-27T16:50:26.415Z,10.07
2019-01-27T16:52:59.755Z,9.33
2019-01-27T16:55:35.021Z,10.60
2019-01-27T16:58:21.483Z,10.30
2019-01-27T17:01:05.277Z,11.07
2019-01-27T17:03:41.092Z,11.33
2019-01-27T17:06:22.392Z,10.47
2019-01-27T17:08:53.553Z,11.97
2019-01-27T17:11:28.129Z,8.57
2019-01-27T17:14:04.411Z,11.40
2019-01-27T17:16:38.623Z,10.43
2019-01-27T17:19:09.867Z,9.27
2019-01-27T17:21:47.855Z,10.23
2019-01-27T17:24:18.720Z,11.27
2019-01-27T17:26:52.732Z,12.70
2019-01-27T17:29:28.141Z,8.90
2019-01-27T17:32:05.995Z,8.90
2019-01-27T17:34:37.822Z,10.40
2019-01-27T17:37:12.390Z,10.83
2019-01-27T17:39:51.932Z,11.13
2019-01-27T17:42:23.655Z,10.87
2019-01-27T17:44:57.791Z,11.03
2019-01-27T17:47:42.728Z,9.80
2019-01-27T17:50:18.473Z,9.93
2019-01-27T17:53:05.660Z,10.70
2019-01-27T17:55:55.104Z,12.93
2019-01-27T17:59:11.470Z,11.67
2019-01-27T18:02:15.018Z,12.00
2019-01-27T18:05:28.920Z,11.57
2019-01-27T18:08:29.709Z,12.07
2019-01-27T18:11:41.811Z,12.60
2019-01-27T18:14:32.665Z,11.60
2019-01-27T18:17:14.095Z,11.63
2019-01-27T18:20:05.561Z,13.37
2019-01-27T18:22:40.745Z,10.23
2019-01-27T18:25:19.986Z,11.33
2019-01-27T18:28:06.129Z,15.20
2019-01-27T18:30:39.013Z,12.83
2019-01-27T18:33:35.997Z,12.83
2019-01-27T18:36:05.138Z,13.23
2019-01-27T18:38:47.062Z,11.73
2019-01-27T18:41:14.748Z,11.10
2019-01-27T18:44:26.622Z,11.10
2019-01-27T18:47:11.912Z,12.60
2019-01-27T18:49:45.853Z,11.90
2019-01-27T18:52:31.079Z,12.13
2019-01-27T18:55:36.784Z,11.43
2019-01-27T18:58:30.190Z,11.73
2019-01-27T19:01:19.844Z,11.80
2019-01-27T19:04:15.953Z,12.13
2019-01-27T19:07:05.204Z,11.27
2019-01-27T19:10:17.519Z,12.57
2019-01-27T19:13:08.339Z,10.37
2019-01-27T19:16:15.195Z,11.57
2019-01-27T19:19:19.357Z,11.43
2019-01-27T19:22:29.994Z,12.03
2019-01-27T19:25:19.839Z,11.27
2019-01-27T19:28:16.790Z,12.43
2019-01-27T19:31:22.356Z,11.07
2019-01-27T19:34:20.964Z,13.80
2019-01-27T19:37:22.322Z,11.83
2019-01-27T19:40:38.289Z,13.37
2019-01-27T19:43:32.483Z,11.63
2019-01-27T19:46:24.490Z,13.37
2019-01-27T19:49:29.121Z,13.50
2019-01-27T19:52:42.628Z,11.70
2019-01-27T19:55:41.941Z,11.63
2019-01-27T19:58:41.962Z,14.10
2019-01-27T20:01:27.676Z,13.60
2019-01-27T20:04:38.598Z,13.07
2019-01-27T20:07:30.730Z,14.50
2019-01-27T20:10:28.049Z,15.23
2019-01-27T20:13:28.936Z,13.83
2019-01-27T20:16:31.937Z,15.50
2019-01-27T20:19:34.159Z,14.37
2019-01-27T20:22:33.555Z,15.10
2019-01-27T20:25:28.302Z,13.50
2019-01-27T20:28:29.438Z,14.30
2019-01-27T20:31:21.999Z,13.10
2019-01-27T20:34:23.737Z,13.30
2019-01-27T20:37:08.041Z,15.80
2019-01-27T20:40:06.065Z,16.00
2019-01-27T20:43:26.109Z,14.47
2019-01-27T20:46:25.275Z,15.10
2019-01-27T20:49:13.230Z,14.40
2019-01-27T20:52:17.328Z,14.40
2019-01-27T20:55:31.121Z,13.07
2019-01-27T20:58:39.258Z,14.93
2019-01-27T21:01:42.296Z,14.07
2019-01-27T21:04:41.922Z,14.30
2019-01-27T21:07:36.123Z,14.00
2019-01-27T21:10:31.665Z,13.13
2019-01-27T21:13:24.901Z,13.30
2019-01-27T21:16:41.550Z,11.03
2019-01-27T21:19:23.629Z,14.23
2019-01-27T21:21:54.405Z,13.53
2019-01-27T21:24:28.363Z,11.93
2019-01-27T21:27:09.478Z,13.20
2019-01-27T21:29:50.019Z,12.93
2019-01-27T21:32:16.123Z,14.13
2019-01-27T21:34:50.274Z,12.73
2019-01-27T21:37:27.934Z,12.40
2019-01-27T21:40:00.558Z,11.53
2019-01-27T21:42:47.206Z,12.77
2019-01-27T21:45:19.162Z,12.30
2019-01-27T21:48:00.156Z,11.87
2019-01-27T21:50:33.821Z,11.17
2019-01-27T21:53:24.505Z,11.47
2019-01-27T21:56:07.034Z,11.40
2019-01-27T21:58:44.086Z,12.17
2019-01-27T22:01:25.392Z,11.57
2019-01-27T22:03:54.912Z,13.30
2019-01-27T22:06:30.342Z,11.00
2019-01-27T22:09:05.795Z,12.23
2019-01-27T22:11:37.883Z,13.60
2019-01-27T22:14:15.949Z,12.73
2019-01-27T22:16:49.646Z,12.77
2019-01-27T22:19:24.576Z,12.98
2019-01-27T22:22:00.415Z,12.57
2019-01-27T22:24:35.407Z,12.00
2019-01-27T22:27:13.190Z,12.20
2019-01-27T22:29:52.768Z,12.37
2019-01-27T22:32:25.226Z,10.77
2019-01-27T22:35:27.751Z,11.67
2019-01-27T22:38:01.915Z,12.30
2019-01-27T22:40:35.708Z,12.37
2019-01-27T22:43:12.494Z,11.30
2019-01-27T22:45:58.412Z,12.87
2019-01-27T22:48:33.741Z,12.00
2019-01-27T22:51:10.904Z,12.63
2019-01-27T22:53:45.116Z,12.87
2019-01-27T22:56:23.670Z,13.40
2019-01-27T22:58:57.426Z,12.10
2019-01-27T23:01:29.432Z,13.60
2019-01-27T23:04:17.711Z,12.73
2019-01-27T23:07:04.442Z,12.27
2019-01-27T23:09:40.813Z,13.17
2019-01-27T23:12:19.042Z,14.17
2019-01-27T23:14:52.872Z,13.17
2019-01-27T23:17:26.973Z,13.47
2019-01-27T23:20:05.604Z,17.03
2019-01-27T23:22:47.025Z,14.23
2019-01-27T23:25:22.407Z,18.47
2019-01-27T23:28:03.059Z,16.47
2019-01-27T23:30:35.223Z,15.83
2019-01-27T23:33:12.997Z,16.77
2019-01-27T23:35:57.704Z,14.40
2019-01-27T23:38:44.606Z,18.27
2019-01-27T23:41:15.369Z,17.73
2019-01-27T23:43:55.288Z,20.63
2019-01-27T23:46:34.937Z,22.33
2019-01-27T23:49:19.747Z,21.80
2019-01-27T23:51:56.847Z,26.97
2019-01-27T23:54:31.343Z,24.73
2019-01-27T23:57:18.923Z,27.17
2019-01-27T23:59:57.485Z,31.10
